createdAt,value
2022-11-22T00:00:19.588Z,84.22
2022-11-22T00:02:46.617Z,83.26
2022-11-22T00:05:13.635Z,83.03
2022-11-22T00:07:40.581Z,83.44
2022-11-22T00:10:09.315Z,83.47
2022-11-22T00:12:36.514Z,82.91
2022-11-22T00:15:04.233Z,83.28
2022-11-22T00:17:31.958Z,82.73
2022-11-22T00:19:58.871Z,83.50
2022-11-22T00:22:25.718Z,83.05
2022-11-22T00:24:53.166Z,82.73
2022-11-22T00:27:20.038Z,82.73
2022-11-22T00:29:46.685Z,83.05
2022-11-22T00:32:13.670Z,82.77
2022-11-22T00:34:40.595Z,82.09
2022-11-22T00:37:07.643Z,82.15
2022-11-22T00:39:34.333Z,82.16
2022-11-22T00:42:00.936Z,81.73
2022-11-22T00:44:27.934Z,82.05
2022-11-22T00:46:54.564Z,80.90
2022-11-22T00:49:21.240Z,81.13
2022-11-22T00:51:47.939Z,81.32
2022-11-22T00:54:14.658Z,81.11
2022-11-22T00:56:41.258Z,81.15
2022-11-22T00:59:07.928Z,81.29
2022-11-22T01:01:34.563Z,80.80
2022-11-22T01:04:01.384Z,80.79
2022-11-22T01:06:28.108Z,80.98
2022-11-22T01:08:54.884Z,81.30
2022-11-22T01:11:21.534Z,81.68
2022-11-22T01:13:48.273Z,82.02
2022-11-22T01:16:17.937Z,82.29
2022-11-22T01:18:44.746Z,83.27
2022-11-22T01:21:11.650Z,83.74
2022-11-22T01:23:38.313Z,84.83
2022-11-22T01:26:08.088Z,87.42
2022-11-22T01:28:35.695Z,88.48
2022-11-22T01:31:02.304Z,88.73
2022-11-22T01:33:29.312Z,88.55
2022-11-22T01:35:55.979Z,87.55
2022-11-22T01:38:22.659Z,88.17
2022-11-22T01:40:49.277Z,87.56
2022-11-22T01:43:21.166Z,86.98
2022-11-22T01:46:26.024Z,87.21
2022-11-22T01:49:02.829Z,86.20
2022-11-22T01:51:38.640Z,86.00
2022-11-22T01:54:10.002Z,85.30
2022-11-22T01:56:39.023Z,85.16
2022-11-22T01:59:12.486Z,84.70
2022-11-22T02:01:39.643Z,83.90
2022-11-22T02:04:08.565Z,84.36
2022-11-22T02:07:11.175Z,84.36
2022-11-22T02:09:40.176Z,84.04
2022-11-22T02:12:08.764Z,84.31
2022-11-22T02:14:38.135Z,84.79
2022-11-22T02:17:04.917Z,83.51
2022-11-22T02:19:46.757Z,82.92
2022-11-22T02:22:33.722Z,83.02
2022-11-22T02:25:41.743Z,82.64
2022-11-22T02:28:10.127Z,82.56
2022-11-22T02:30:37.178Z,81.89
2022-11-22T02:33:04.441Z,81.66
2022-11-22T02:35:31.525Z,81.33
2022-11-22T02:38:01.863Z,81.56
2022-11-22T02:40:32.912Z,81.18
2022-11-22T02:43:21.967Z,80.99
2022-11-22T02:45:48.846Z,81.10
2022-11-22T02:48:18.087Z,81.46
2022-11-22T02:50:44.816Z,81.81
2022-11-22T02:53:12.782Z,81.45
2022-11-22T02:55:39.443Z,81.20
2022-11-22T02:58:06.305Z,81.58
2022-11-22T03:00:35.355Z,80.90
2022-11-22T03:03:02.070Z,80.52
2022-11-22T03:05:28.780Z,80.60
2022-11-22T03:07:55.723Z,80.44
2022-11-22T03:10:22.397Z,80.16
2022-11-22T03:12:48.975Z,80.13
2022-11-22T03:15:15.783Z,80.45
2022-11-22T03:17:42.351Z,80.29
2022-11-22T03:20:09.549Z,79.95
2022-11-22T03:22:36.193Z,80.13
2022-11-22T03:25:02.879Z,80.05
2022-11-22T03:27:29.429Z,80.20
2022-11-22T03:29:56.217Z,80.28
2022-11-22T03:32:22.798Z,80.49
2022-11-22T03:34:49.456Z,80.41
2022-11-22T03:37:16.147Z,79.61
2022-11-22T03:39:42.778Z,80.22
2022-11-22T03:42:09.341Z,79.73
2022-11-22T03:44:36.018Z,80.26
2022-11-22T03:47:02.656Z,80.17
2022-11-22T03:49:29.528Z,80.95
2022-11-22T03:51:56.404Z,81.07
2022-11-22T03:54:23.062Z,81.21
2022-11-22T03:57:27.086Z,80.56
2022-11-22T04:00:19.172Z,80.49
2022-11-22T04:02:46.015Z,80.86
2022-11-22T04:05:12.543Z,80.47
2022-11-22T04:07:39.199Z,80.33
2022-11-22T04:10:06.978Z,80.70
2022-11-22T04:12:34.138Z,80.51
2022-11-22T04:15:00.981Z,80.50
2022-11-22T04:17:27.673Z,80.58
2022-11-22T04:19:54.177Z,79.37
2022-11-22T04:22:20.747Z,80.37
2022-11-22T04:24:47.320Z,80.31
2022-11-22T04:27:13.939Z,81.08
2022-11-22T04:29:40.449Z,81.29
2022-11-22T04:32:08.871Z,80.50
2022-11-22T04:34:36.033Z,80.76
2022-11-22T04:37:03.834Z,80.04
2022-11-22T04:39:30.830Z,81.14
2022-11-22T04:41:57.697Z,81.45
2022-11-22T04:44:24.195Z,80.38
2022-11-22T04:46:50.882Z,79.91
2022-11-22T04:49:17.410Z,81.75
2022-11-22T04:51:44.001Z,81.64
2022-11-22T04:54:10.575Z,80.52
2022-11-22T04:56:37.189Z,81.56
2022-11-22T04:59:03.711Z,81.17
2022-11-22T05:01:30.731Z,80.98
2022-11-22T05:03:57.239Z,80.66
2022-11-22T05:06:23.843Z,80.10
2022-11-22T05:08:50.437Z,80.01
2022-11-22T05:11:17.142Z,79.94
2022-11-22T05:13:44.140Z,79.77
2022-11-22T05:16:13.662Z,80.25
2022-11-22T05:18:41.709Z,79.44
2022-11-22T05:21:10.223Z,79.62
2022-11-22T05:23:38.173Z,79.77
2022-11-22T05:26:05.783Z,79.73
2022-11-22T05:28:34.585Z,79.86
2022-11-22T05:31:12.691Z,80.34
2022-11-22T05:33:41.637Z,80.42
2022-11-22T05:36:08.574Z,80.16
2022-11-22T05:38:36.395Z,80.00
2022-11-22T05:41:07.095Z,80.05
2022-11-22T05:43:33.988Z,79.69
2022-11-22T05:46:33.769Z,79.78
2022-11-22T05:49:00.358Z,79.04
2022-11-22T05:51:34.005Z,79.61
2022-11-22T05:54:02.648Z,79.75
2022-11-22T05:56:29.232Z,80.97
2022-11-22T05:58:55.814Z,80.38
2022-11-22T06:01:25.224Z,80.04
2022-11-22T06:03:52.421Z,79.84
2022-11-22T06:06:19.200Z,79.16
2022-11-22T06:08:46.624Z,79.25
2022-11-22T06:11:19.623Z,80.00
2022-11-22T06:13:47.908Z,79.80
2022-11-22T06:16:14.771Z,79.58
2022-11-22T06:18:42.198Z,79.67
2022-11-22T06:21:13.337Z,79.63
2022-11-22T06:23:40.005Z,79.21
2022-11-22T06:26:10.136Z,78.98
2022-11-22T06:28:38.651Z,79.13
2022-11-22T06:31:12.979Z,80.61
2022-11-22T06:33:40.765Z,80.49
2022-11-22T06:36:13.260Z,80.46
2022-11-22T06:38:41.726Z,80.25
2022-11-22T06:41:13.723Z,80.03
2022-11-22T06:43:48.263Z,79.83
2022-11-22T06:46:17.942Z,79.77
2022-11-22T06:48:45.142Z,79.26
2022-11-22T06:51:11.800Z,79.28
2022-11-22T06:53:47.335Z,79.45
2022-11-22T06:56:20.925Z,79.46
2022-11-22T06:58:48.958Z,79.44
2022-11-22T07:01:18.425Z,79.89
2022-11-22T07:03:46.326Z,79.78
2022-11-22T07:06:14.771Z,79.85
2022-11-22T07:08:42.395Z,79.10
2022-11-22T07:11:15.101Z,80.21
2022-11-22T07:13:42.174Z,79.73
2022-11-22T07:16:11.831Z,79.98
2022-11-22T07:18:38.492Z,79.50
2022-11-22T07:21:12.454Z,79.77
2022-11-22T07:23:41.680Z,79.64
2022-11-22T07:26:09.971Z,80.16
2022-11-22T07:28:37.659Z,79.90
2022-11-22T07:31:06.983Z,80.11
2022-11-22T07:33:34.098Z,79.65
2022-11-22T07:36:05.549Z,80.03
2022-11-22T07:38:33.038Z,80.01
2022-11-22T07:40:59.623Z,79.85
2022-11-22T07:43:26.435Z,80.28
2022-11-22T07:45:53.048Z,80.66
2022-11-22T07:48:19.702Z,81.88
2022-11-22T07:50:46.287Z,82.71
2022-11-22T07:53:16.014Z,83.20
2022-11-22T07:55:42.609Z,83.54
2022-11-22T07:58:09.281Z,83.70
2022-11-22T08:00:36.159Z,83.26
2022-11-22T08:03:02.962Z,82.94
2022-11-22T08:05:29.544Z,82.56
2022-11-22T08:07:56.264Z,83.02
2022-11-22T08:10:23.795Z,82.70
2022-11-22T08:12:50.513Z,82.84
2022-11-22T08:15:17.999Z,82.47
2022-11-22T08:17:44.751Z,82.23
2022-11-22T08:20:11.644Z,82.23
2022-11-22T08:22:39.516Z,81.69
2022-11-22T08:25:06.431Z,81.55
2022-11-22T08:27:33.065Z,81.27
2022-11-22T08:29:59.707Z,81.25
2022-11-22T08:32:26.335Z,81.33
2022-11-22T08:34:52.891Z,81.08
2022-11-22T08:37:19.606Z,81.40
2022-11-22T08:39:46.157Z,81.71
2022-11-22T08:42:12.853Z,82.05
2022-11-22T08:44:39.656Z,82.08
2022-11-22T08:47:06.290Z,81.33
2022-11-22T08:49:33.214Z,81.41
2022-11-22T08:52:00.177Z,81.84
2022-11-22T08:54:26.776Z,81.91
2022-11-22T08:56:53.398Z,81.67
2022-11-22T08:59:20.053Z,81.06
2022-11-22T09:01:46.791Z,80.72
2022-11-22T09:04:13.399Z,80.88
2022-11-22T09:09:42.022Z,80.22
2022-11-22T09:12:08.703Z,79.05
2022-11-22T09:14:35.488Z,78.84
2022-11-22T09:17:02.163Z,79.23
2022-11-22T09:19:28.978Z,79.61
2022-11-22T09:21:55.823Z,78.85
2022-11-22T09:24:22.407Z,78.60
2022-11-22T09:26:49.301Z,78.75
2022-11-22T09:29:15.937Z,78.70
2022-11-22T09:31:42.775Z,78.03
2022-11-22T09:34:09.470Z,78.54
2022-11-22T09:36:36.153Z,78.43
2022-11-22T09:39:02.907Z,78.48
2022-11-22T09:41:41.466Z,77.77
2022-11-22T09:44:19.945Z,78.12
2022-11-22T09:47:22.662Z,77.74
2022-11-22T09:50:07.730Z,78.47
2022-11-22T09:52:42.419Z,79.47
2022-11-22T09:55:29.139Z,79.01
2022-11-22T09:58:44.808Z,78.80
2022-11-22T10:01:18.240Z,78.19
2022-11-22T10:03:52.128Z,78.27
2022-11-22T10:06:27.483Z,77.99
2022-11-22T10:09:03.307Z,77.61
2022-11-22T10:11:36.593Z,77.34
2022-11-22T10:14:39.199Z,78.51
2022-11-22T10:17:27.581Z,78.44
2022-11-22T10:20:25.011Z,78.75
2022-11-22T10:22:52.194Z,78.44
2022-11-22T10:25:32.000Z,77.14
2022-11-22T10:28:10.017Z,78.19
2022-11-22T10:30:42.586Z,79.26
2022-11-22T10:33:19.697Z,79.20
2022-11-22T10:35:53.169Z,78.49
2022-11-22T10:38:36.309Z,78.78
2022-11-22T10:41:24.862Z,78.79
2022-11-22T10:44:15.100Z,78.61
2022-11-22T10:46:58.924Z,77.87
2022-11-22T10:49:50.164Z,77.31
2022-11-22T10:52:41.417Z,77.04
2022-11-22T10:55:17.035Z,76.99
2022-11-22T10:58:12.088Z,76.66
2022-11-22T11:00:43.839Z,76.71
2022-11-22T11:03:33.041Z,74.82
2022-11-22T11:09:47.866Z,75.68
2022-11-22T11:11:45.320Z,75.89
2022-11-22T11:14:27.879Z,76.11
2022-11-22T11:16:55.343Z,75.71
2022-11-22T11:19:24.868Z,76.57
2022-11-22T11:22:08.157Z,76.66
2022-11-22T11:24:39.674Z,74.13
2022-11-22T11:27:09.386Z,75.70
2022-11-22T11:29:38.758Z,75.50
2022-11-22T11:32:17.245Z,75.09
2022-11-22T11:34:57.575Z,75.82
2022-11-22T11:37:33.439Z,76.62
2022-11-22T11:40:00.308Z,76.87
2022-11-22T11:42:36.141Z,77.85
2022-11-22T11:45:24.304Z,76.62
2022-11-22T11:47:51.386Z,76.48
2022-11-22T11:50:24.220Z,77.38
2022-11-22T11:52:53.694Z,76.98
2022-11-22T11:55:20.534Z,76.99
2022-11-22T11:57:49.010Z,77.90
2022-11-22T12:00:27.210Z,76.68
2022-11-22T12:03:04.131Z,77.43
2022-11-22T12:05:33.229Z,76.58
2022-11-22T12:08:01.236Z,77.37
2022-11-22T12:10:39.990Z,76.16
2022-11-22T12:13:29.062Z,76.01
2022-11-22T12:16:04.958Z,75.93
2022-11-22T12:18:31.676Z,75.22
2022-11-22T12:21:07.769Z,76.59
2022-11-22T12:23:40.464Z,75.98
2022-11-22T12:26:07.374Z,75.73
2022-11-22T12:28:34.275Z,76.04
2022-11-22T12:31:12.035Z,75.91
2022-11-22T12:33:47.186Z,74.89
2022-11-22T12:36:21.105Z,72.56
2022-11-22T12:38:49.838Z,72.79
2022-11-22T12:41:20.354Z,74.31
2022-11-22T12:43:53.167Z,74.02
2022-11-22T12:46:26.037Z,73.30
2022-11-22T12:49:01.500Z,74.48
2022-11-22T12:51:46.964Z,73.84
2022-11-22T12:54:31.168Z,74.40
2022-11-22T12:57:24.030Z,72.93
2022-11-22T13:00:04.612Z,73.11
2022-11-22T13:02:44.826Z,73.14
2022-11-22T13:05:22.831Z,72.26
2022-11-22T13:08:03.713Z,71.87
2022-11-22T13:10:42.804Z,72.14
2022-11-22T13:13:27.231Z,72.58
2022-11-22T13:15:57.712Z,73.09
2022-11-22T13:18:32.770Z,72.49
2022-11-22T13:21:20.609Z,72.84
2022-11-22T13:24:29.380Z,71.73
2022-11-22T13:27:13.921Z,72.56
2022-11-22T13:29:43.018Z,73.21
2022-11-22T13:32:12.479Z,72.11
2022-11-22T13:34:42.522Z,71.33
2022-11-22T13:37:15.846Z,70.99
2022-11-22T13:39:49.738Z,70.51
2022-11-22T13:42:26.316Z,71.83
2022-11-22T13:44:55.865Z,71.71
2022-11-22T13:47:22.408Z,71.17
2022-11-22T13:49:53.336Z,71.38
2022-11-22T13:52:20.061Z,71.12
2022-11-22T13:54:46.737Z,70.99
2022-11-22T13:57:36.560Z,69.80
2022-11-22T14:00:12.387Z,69.37
2022-11-22T14:02:41.859Z,70.16
2022-11-22T14:05:39.642Z,70.65
2022-11-22T14:08:28.457Z,70.90
2022-11-22T14:10:55.073Z,71.48
2022-11-22T14:13:48.441Z,71.85
2022-11-22T14:16:32.024Z,72.22
2022-11-22T14:19:07.820Z,71.26
2022-11-22T14:21:46.292Z,72.16
2022-11-22T14:24:54.432Z,72.70
2022-11-22T14:27:23.732Z,72.52
2022-11-22T14:30:15.061Z,73.32
2022-11-22T14:32:41.660Z,72.61
2022-11-22T14:35:22.518Z,73.79
2022-11-22T14:38:00.959Z,73.92
2022-11-22T14:40:38.838Z,73.78
2022-11-22T14:43:11.692Z,73.25
2022-11-22T14:45:45.748Z,74.27
2022-11-22T14:48:24.266Z,75.22
2022-11-22T14:51:20.913Z,75.21
2022-11-22T14:53:56.690Z,75.02
2022-11-22T14:56:31.253Z,75.39
2022-11-22T14:59:00.966Z,74.89
2022-11-22T15:01:46.558Z,76.35
2022-11-22T15:09:12.370Z,76.37
2022-11-22T15:09:15.365Z,75.92
2022-11-22T15:10:42.657Z,76.44
2022-11-22T15:13:12.486Z,76.02
2022-11-22T15:59:23.956Z,75.16
2022-11-22T16:01:54.192Z,75.55
2022-11-22T16:04:29.118Z,74.45
2022-11-22T16:07:02.478Z,74.04
2022-11-22T16:09:36.376Z,74.45
2022-11-22T16:12:27.920Z,73.26
2022-11-22T16:14:54.823Z,74.19
2022-11-22T16:17:37.206Z,74.02
2022-11-22T16:20:21.796Z,73.54
2022-11-22T16:23:10.025Z,74.00
2022-11-22T16:25:38.860Z,73.67
2022-11-22T16:28:29.733Z,73.36
2022-11-22T16:30:59.385Z,73.17
2022-11-22T16:33:26.345Z,72.89
2022-11-22T16:35:58.130Z,72.56
2022-11-22T16:38:25.643Z,73.98
2022-11-22T16:40:55.657Z,73.24
2022-11-22T16:43:24.063Z,73.89
2022-11-22T16:45:51.014Z,73.54
2022-11-22T16:48:35.076Z,73.83
2022-11-22T16:51:04.871Z,73.42
2022-11-22T16:53:40.381Z,73.36
2022-11-22T16:56:07.361Z,73.57
2022-11-22T16:58:33.982Z,74.04
2022-11-22T17:01:01.157Z,74.46
2022-11-22T17:03:28.601Z,75.31
2022-11-22T17:05:55.463Z,74.68
2022-11-22T17:08:22.044Z,74.53
2022-11-22T17:10:51.990Z,73.85
2022-11-22T17:13:25.001Z,74.13
2022-11-22T17:15:53.045Z,73.59
2022-11-22T17:18:19.937Z,73.13
2022-11-22T17:20:47.461Z,73.86
2022-11-22T17:23:30.989Z,74.76
2022-11-22T17:25:57.708Z,75.06
2022-11-22T17:28:24.306Z,74.72
2022-11-22T17:30:51.510Z,74.67
2022-11-22T17:33:18.102Z,74.64
2022-11-22T17:35:45.004Z,74.93
2022-11-22T17:38:11.730Z,74.82
2022-11-22T17:40:38.518Z,74.94
2022-11-22T17:43:05.115Z,75.34
2022-11-22T17:45:32.019Z,74.92
2022-11-22T17:47:59.672Z,74.94
2022-11-22T17:50:26.380Z,75.17
2022-11-22T17:52:53.369Z,76.17
2022-11-22T17:55:20.109Z,76.88
2022-11-22T17:57:48.591Z,76.14
2022-11-22T18:00:18.843Z,75.55
2022-11-22T18:02:45.448Z,75.37
2022-11-22T18:05:12.868Z,74.48
2022-11-22T18:07:39.864Z,74.96
2022-11-22T18:10:08.156Z,75.07
2022-11-22T18:12:42.388Z,76.18
2022-11-22T18:15:13.815Z,76.10
2022-11-22T18:17:40.458Z,77.27
2022-11-22T18:20:07.798Z,76.50
2022-11-22T18:22:34.526Z,76.23
2022-11-22T18:25:01.190Z,75.44
2022-11-22T18:27:27.798Z,74.93
2022-11-22T18:29:54.927Z,74.08
2022-11-22T18:32:21.740Z,74.15
2022-11-22T18:34:48.400Z,74.57
2022-11-22T18:37:15.043Z,72.62
2022-11-22T18:39:41.766Z,73.08
2022-11-22T18:42:13.354Z,73.08
2022-11-22T18:44:40.337Z,73.57
2022-11-22T18:47:07.539Z,73.96
2022-11-22T18:49:34.498Z,74.37
2022-11-22T18:52:01.594Z,74.14
2022-11-22T18:54:28.651Z,74.11
2022-11-22T18:56:55.386Z,73.81
2022-11-22T18:59:22.450Z,73.15
2022-11-22T19:01:49.128Z,73.38
2022-11-22T19:04:15.912Z,73.35
2022-11-22T19:06:43.987Z,73.62
2022-11-22T19:09:10.984Z,73.80
2022-11-22T19:11:37.728Z,73.89
2022-11-22T19:14:04.641Z,73.79
2022-11-22T19:16:31.275Z,73.28
2022-11-22T19:18:58.450Z,73.26
2022-11-22T19:21:27.227Z,73.18
2022-11-22T19:23:55.029Z,73.34
2022-11-22T19:26:23.877Z,74.23
2022-11-22T19:28:52.298Z,73.82
2022-11-22T19:31:21.340Z,74.39
2022-11-22T19:33:48.812Z,73.76
2022-11-22T19:36:17.940Z,73.35
2022-11-22T19:38:45.438Z,74.90
2022-11-22T19:41:14.733Z,74.97
2022-11-22T19:43:41.570Z,75.44
2022-11-22T19:46:08.700Z,75.49
2022-11-22T19:48:35.364Z,74.46
2022-11-22T19:51:11.690Z,74.24
2022-11-22T19:53:39.065Z,73.47
2022-11-22T19:56:13.917Z,73.53
2022-11-22T19:58:43.914Z,74.75
2022-11-22T20:01:12.707Z,74.34
2022-11-22T20:03:41.525Z,74.23
2022-11-22T20:06:10.051Z,74.72
2022-11-22T20:08:37.239Z,75.54
2022-11-22T20:11:06.967Z,75.00
2022-11-22T20:13:36.851Z,74.83
2022-11-22T20:16:12.228Z,74.32
2022-11-22T20:18:39.038Z,73.70
2022-11-22T20:21:07.279Z,73.73
2022-11-22T20:23:33.985Z,73.63
2022-11-22T20:26:05.719Z,74.22
2022-11-22T20:28:32.476Z,74.84
2022-11-22T20:31:10.267Z,75.25
2022-11-22T20:33:38.563Z,73.84
2022-11-22T20:36:09.590Z,72.75
2022-11-22T20:38:47.714Z,72.53
2022-11-22T20:41:15.836Z,72.43
2022-11-22T20:43:43.136Z,71.98
2022-11-22T20:46:15.237Z,72.66
2022-11-22T20:48:56.159Z,73.15
2022-11-22T20:51:28.273Z,72.64
2022-11-22T20:53:56.363Z,72.36
2022-11-22T20:56:23.220Z,73.36
2022-11-22T20:58:50.183Z,72.92
2022-11-22T21:01:22.383Z,74.27
2022-11-22T21:03:49.576Z,74.68
2022-11-22T21:06:17.433Z,74.60
2022-11-22T21:08:44.703Z,73.85
2022-11-22T21:11:25.682Z,73.41
2022-11-22T21:13:53.433Z,74.59
2022-11-22T21:16:24.483Z,75.63
2022-11-22T21:18:53.160Z,74.80
2022-11-22T21:21:20.766Z,75.45
2022-11-22T21:23:47.433Z,75.27
2022-11-22T21:26:14.061Z,75.12
2022-11-22T21:28:40.691Z,74.42
2022-11-22T21:31:07.277Z,74.04
2022-11-22T21:33:35.637Z,74.35
2022-11-22T21:36:04.779Z,74.13
2022-11-22T21:38:33.401Z,74.86
2022-11-22T21:41:17.241Z,75.15
2022-11-22T21:43:50.646Z,76.25
2022-11-22T21:46:17.409Z,77.29
2022-11-22T21:48:44.099Z,77.22
2022-11-22T21:51:10.864Z,77.35
2022-11-22T21:53:37.553Z,77.15
2022-11-22T21:56:04.189Z,78.04
2022-11-22T21:58:31.202Z,78.07
2022-11-22T22:00:58.784Z,77.89
2022-11-22T22:03:25.486Z,75.35
2022-11-22T22:05:52.783Z,74.73
2022-11-22T22:08:19.990Z,75.33
2022-11-22T22:10:50.169Z,75.10
2022-11-22T22:13:18.129Z,75.69
2022-11-22T22:15:45.016Z,76.34
2022-11-22T22:18:11.677Z,76.61
2022-11-22T22:20:38.315Z,75.96
2022-11-22T22:23:05.020Z,75.87
2022-11-22T22:25:31.649Z,76.11
2022-11-22T22:27:58.460Z,76.59
2022-11-22T22:30:25.175Z,76.08
2022-11-22T22:32:51.837Z,76.32
2022-11-22T22:35:18.444Z,77.02
2022-11-22T22:37:45.129Z,76.79
2022-11-22T22:40:12.029Z,76.96
2022-11-22T22:42:38.743Z,75.55
2022-11-22T22:45:05.801Z,76.30
2022-11-22T22:47:32.523Z,76.23
2022-11-22T22:49:59.174Z,76.41
2022-11-22T22:52:25.864Z,77.92
2022-11-22T22:54:52.431Z,77.26
2022-11-22T22:57:19.173Z,78.00
2022-11-22T22:59:45.763Z,78.34
2022-11-22T23:02:12.435Z,78.49
2022-11-22T23:04:39.158Z,78.77
2022-11-22T23:07:05.876Z,78.60
2022-11-22T23:09:32.714Z,78.24
2022-11-22T23:11:59.636Z,78.94
2022-11-22T23:14:28.114Z,78.48
2022-11-22T23:16:57.965Z,77.42
2022-11-22T23:19:26.424Z,77.39
2022-11-22T23:21:53.263Z,77.59
2022-11-22T23:24:20.054Z,77.30
2022-11-22T23:26:47.022Z,76.33
2022-11-22T23:29:13.724Z,76.16
2022-11-22T23:31:40.443Z,77.06
2022-11-22T23:34:07.104Z,78.15
2022-11-22T23:36:38.929Z,77.81
2022-11-22T23:39:07.218Z,78.07
2022-11-22T23:41:33.777Z,78.01
2022-11-22T23:44:00.528Z,78.03
2022-11-22T23:46:27.569Z,79.38
2022-11-22T23:48:59.211Z,79.16
2022-11-22T23:51:27.862Z,78.42
2022-11-22T23:54:02.442Z,78.40
2022-11-22T23:56:30.882Z,78.44
2022-11-22T23:59:01.528Z,78.41
